Time;durP1;ratioP1;P1;durP2;ratioP2;P2;SDS_P1;SDS_P2;PMS_P1;PMS_P2;Temp;Humidity;BMP_temperature;BMP_pressure;BME280_temperature;BME280_humidity;BME280_pressure;Samples;Min_cycle;Max_cycle;Signal;HPM_P1;HPM_P2
2021/11/05 00:00:56;;;;;;;12.47;11.27;;;15.40;99.90;;;16.23;54.16;101014.13;4967943;28;104088;-52
2021/11/05 00:03:22;;;;;;;6.93;6.30;;;15.30;99.90;;;16.27;54.06;101007.69;4972514;28;97247;-48
2021/11/05 00:05:48;;;;;;;9.73;8.33;;;15.40;99.90;;;16.33;53.70;101022.47;4973491;27;97972;-51
2021/11/05 00:08:15;;;;;;;24.33;19.47;;;15.50;99.90;;;16.33;53.71;101028.66;4973083;27;97810;-49
2021/11/05 00:10:43;;;;;;;19.97;17.87;;;15.60;99.90;;;16.27;53.57;101029.00;4967006;27;99227;-49
2021/11/05 00:13:10;;;;;;;12.40;10.80;;;15.40;99.90;;;16.19;53.83;101020.53;4970351;28;98566;-48
2021/11/05 00:15:37;;;;;;;8.73;7.93;;;15.30;99.90;;;16.13;54.37;101020.88;4998216;27;98016;-49
2021/11/05 00:18:04;;;;;;;8.07;7.27;;;15.10;99.90;;;16.14;54.24;101030.59;4972225;28;97291;-50
2021/11/05 00:20:30;;;;;;;9.77;8.77;;;15.20;99.90;;;16.15;54.34;101034.97;4965899;27;99947;-47
2021/11/05 00:22:57;;;;;;;9.87;8.30;;;15.30;99.90;;;16.16;54.28;101042.00;4973709;28;100104;-48
2021/11/05 00:25:23;;;;;;;23.83;21.13;;;15.30;99.90;;;16.18;53.88;101042.78;4975437;28;97602;-51
2021/11/05 00:27:49;;;;;;;15.03;13.47;;;15.30;99.90;;;16.13;54.30;101041.31;4967597;28;97014;-50
2021/11/05 00:30:16;;;;;;;16.80;15.00;;;15.20;99.90;;;16.11;54.36;101048.53;4973829;28;98520;-46
2021/11/05 00:32:42;;;;;;;14.33;12.70;;;15.10;99.90;;;16.11;54.40;101045.84;4968060;28;97476;-48
2021/11/05 00:35:13;;;;;;;10.90;9.13;;;15.10;99.90;;;16.05;54.28;101045.22;4973805;28;98019;-50
2021/11/05 00:37:40;;;;;;;9.43;8.43;;;15.10;99.90;;;16.08;54.70;101038.91;4971918;28;97461;-48
2021/11/05 00:40:09;;;;;;;9.27;8.37;;;15.10;99.90;;;16.10;54.50;101044.16;4975197;28;99535;-48
2021/11/05 00:42:36;;;;;;;8.40;7.60;;;15.20;99.90;;;16.15;54.25;101050.94;4999984;27;98022;-46
2021/11/05 00:45:03;;;;;;;10.67;9.57;;;15.30;99.90;;;16.21;53.99;101061.28;4960333;28;98769;-47
2021/11/05 00:47:28;;;;;;;8.27;7.47;;;15.40;99.90;;;16.26;53.99;101061.88;4972315;27;97602;-47
2021/11/05 00:49:54;;;;;;;8.70;7.83;;;15.50;99.90;;;16.29;53.86;101074.16;4970680;28;109200;-49
2021/11/05 00:52:20;;;;;;;7.53;6.77;;;15.50;99.90;;;16.32;53.91;101066.00;4993582;28;97014;-48
2021/11/05 00:54:46;;;;;;;9.17;8.27;;;15.60;99.90;;;16.34;54.12;101069.44;4967593;28;98534;-49
2021/11/05 00:57:12;;;;;;;8.10;7.30;;;15.50;99.90;;;16.35;54.06;101074.72;4961032;28;98127;-49
2021/11/05 00:59:41;;;;;;;13.87;11.73;;;15.60;99.90;;;16.38;53.83;101078.16;4954832;27;1277680;-47
2021/11/05 01:02:07;;;;;;;9.77;8.70;;;15.60;99.90;;;16.38;53.77;101072.81;4972152;28;97505;-52
2021/11/05 01:04:34;;;;;;;16.50;14.60;;;15.50;99.90;;;16.35;53.74;101074.72;4966152;27;98784;-49
2021/11/05 01:07:00;;;;;;;9.50;8.57;;;15.50;99.90;;;16.39;53.67;101085.19;4964436;28;97537;-48
2021/11/05 01:09:26;;;;;;;10.03;8.87;;;15.50;99.90;;;16.40;53.88;101084.25;4998461;27;98614;-49
2021/11/05 01:11:52;;;;;;;10.10;9.03;;;15.60;99.90;;;16.41;53.91;101093.97;5003675;27;99097;-48
2021/11/05 01:14:18;;;;;;;18.57;16.50;;;15.60;99.90;;;16.42;53.55;101095.69;4971811;28;97631;-47
2021/11/05 01:16:44;;;;;;;13.67;11.57;;;15.60;99.90;;;16.39;53.58;101103.84;4971169;27;98975;-48
2021/11/05 01:19:10;;;;;;;12.70;11.40;;;15.50;99.90;;;16.32;54.04;101109.47;4978351;27;99553;-49
2021/11/05 01:21:35;;;;;;;14.80;13.30;;;15.40;99.90;;;16.28;53.96;101107.91;4974805;27;97795;-48
2021/11/05 01:24:01;;;;;;;9.97;8.40;;;15.30;99.90;;;16.27;54.17;101113.31;5002550;28;96928;-49
2021/11/05 01:26:27;;;;;;;12.70;11.37;;;15.30;99.90;;;16.27;54.26;101114.16;4995203;28;97451;-50
2021/11/05 01:28:53;;;;;;;9.63;8.47;;;15.40;99.90;;;16.29;54.05;101106.97;5012426;27;105477;-48
2021/11/05 01:31:19;;;;;;;13.03;11.73;;;15.40;99.90;;;16.26;54.14;101112.47;4995498;28;99083;-51
2021/11/05 01:33:46;;;;;;;9.70;8.70;;;15.40;99.90;;;16.31;54.11;101113.06;4990615;27;96903;-46
2021/11/05 01:36:12;;;;;;;9.07;8.17;;;15.50;99.90;;;16.32;53.86;101117.44;4995230;28;96937;-48
2021/11/05 01:38:38;;;;;;;11.23;10.10;;;15.50;99.90;;;16.33;54.08;101124.50;4995138;27;97867;-47
2021/11/05 01:41:04;;;;;;;11.87;10.60;;;15.50;99.90;;;16.35;53.96;101121.78;5019042;27;97159;-48
2021/11/05 01:43:30;;;;;;;22.70;20.17;;;15.60;99.90;;;16.35;53.82;101127.97;4991167;27;97998;-47
2021/11/05 01:45:56;;;;;;;12.00;10.00;;;15.60;99.90;;;16.34;54.13;101128.00;4998713;28;97488;-47
2021/11/05 01:48:22;;;;;;;7.53;6.83;;;15.50;99.90;;;16.34;53.91;101131.53;4985180;28;98450;-49
2021/11/05 01:50:48;;;;;;;16.10;14.40;;;15.60;99.90;;;16.34;53.84;101126.22;4990676;27;97912;-48
2021/11/05 01:53:14;;;;;;;9.97;8.50;;;15.50;99.90;;;16.35;54.02;101127.97;4989867;27;98167;-48
2021/11/05 01:55:43;;;;;;;18.37;16.33;;;15.60;99.90;;;16.36;53.79;101134.16;4969999;27;97450;-49
2021/11/05 01:58:10;;;;;;;8.33;7.43;;;15.60;99.90;;;16.34;53.83;101143.97;4999304;27;97810;-49
2021/11/05 02:00:37;;;;;;;30.10;24.17;;;15.50;99.90;;;16.32;53.51;101148.53;4986830;27;97577;-50
2021/11/05 02:03:03;;;;;;;22.23;19.80;;;15.50;99.90;;;16.29;53.75;101154.88;5000043;27;97108;-47
2021/11/05 02:05:29;;;;;;;35.27;27.30;;;15.40;99.90;;;16.31;54.09;101147.66;4988645;27;97070;-46
2021/11/05 02:07:57;;;;;;;28.23;22.13;;;15.50;99.90;;;16.31;54.18;101158.31;4999539;27;97012;-46
2021/11/05 02:10:27;;;;;;;23.73;19.10;;;15.50;99.90;;;16.31;53.99;101153.00;4989435;27;97199;-46
2021/11/05 02:12:53;;;;;;;25.73;22.40;;;15.50;99.90;;;16.31;54.23;101153.00;4989993;28;97341;-47
2021/11/05 02:15:20;;;;;;;30.83;24.23;;;15.50;99.90;;;16.34;54.17;101157.28;4982060;28;98253;-47
2021/11/05 02:17:47;;;;;;;36.13;29.33;;;15.60;99.90;;;16.35;53.77;101159.91;5017648;27;99670;-47
2021/11/05 02:20:19;;;;;;;22.73;19.47;;;15.60;99.90;;;16.35;53.87;101157.25;4996584;28;99129;-48
2021/11/05 02:22:46;;;;;;;11.10;9.97;;;15.60;99.90;;;16.38;53.95;101158.03;4986553;27;97345;-46
2021/11/05 02:25:13;;;;;;;29.73;24.60;;;15.60;99.90;;;16.36;54.15;101166.94;4988338;28;97850;-47
2021/11/05 02:27:39;;;;;;;42.37;31.70;;;15.60;99.90;;;16.38;53.67;101171.34;4987286;27;98965;-50
2021/11/05 02:30:08;;;;;;;45.50;34.90;;;15.60;99.90;;;16.36;53.71;101160.75;4993579;28;96841;-47
2021/11/05 02:32:36;;;;;;;51.37;38.40;;;15.60;99.90;;;16.41;53.63;101171.16;4986915;27;100445;-45
2021/11/05 02:35:04;;;;;;;42.13;31.80;;;15.60;99.90;;;16.36;53.80;101172.28;4991178;28;97040;-46
2021/11/05 02:37:30;;;;;;;50.50;37.90;;;15.60;99.90;;;16.34;53.83;101178.59;4992111;27;97455;-46
2021/11/05 02:39:57;;;;;;;52.70;39.60;;;15.50;99.90;;;16.31;53.86;101178.75;4994515;28;98024;-47
2021/11/05 02:42:22;;;;;;;54.53;39.53;;;15.50;99.90;;;16.32;54.10;101181.34;4991424;27;97025;-47
2021/11/05 02:44:49;;;;;;;54.80;40.50;;;15.50;99.90;;;16.27;53.25;101183.38;4984833;27;97094;-48
2021/11/05 02:47:26;;;;;;;48.00;36.60;;;15.40;99.90;;;16.29;54.31;101185.97;5012311;27;99947;-46
2021/11/05 02:50:07;;;;;;;38.80;29.30;;;15.50;99.90;;;16.21;54.54;101183.72;5006974;27;100871;-47
2021/11/05 02:52:33;;;;;;;56.87;41.53;;;15.30;99.90;;;16.23;54.38;101191.63;4996023;28;97333;-48
2021/11/05 02:55:00;;;;;;;33.80;24.60;;;15.40;99.90;;;16.22;54.56;101196.06;5013967;27;97318;-48
2021/11/05 02:57:25;;;;;;;21.17;16.10;;;15.40;99.90;;;16.26;54.57;101194.97;4993163;27;96772;-51
2021/11/05 02:59:52;;;;;;;48.60;35.77;;;15.50;99.90;;;16.28;54.48;101200.22;4989480;28;99106;-46
2021/11/05 03:02:23;;;;;;;23.27;18.27;;;15.50;99.90;;;16.29;54.34;101197.47;4995457;27;97399;-49
2021/11/05 03:04:49;;;;;;;19.50;15.33;;;15.60;99.90;;;16.32;54.28;101205.28;4992699;27;97071;-49
2021/11/05 03:07:15;;;;;;;43.97;33.47;;;15.60;99.90;;;16.32;54.30;101218.59;4993765;27;98616;-50
2021/11/05 03:09:41;;;;;;;43.10;32.17;;;15.60;99.90;;;16.36;53.90;101219.34;4991729;28;99035;-47
2021/11/05 03:12:10;;;;;;;22.97;18.97;;;15.60;99.90;;;16.41;54.11;101227.09;5010975;27;98583;-51
2021/11/05 03:14:38;;;;;;;25.63;19.77;;;15.70;99.90;;;16.43;53.98;101230.53;4987663;27;96992;-46
2021/11/05 03:17:06;;;;;;;15.47;12.73;;;15.70;99.90;;;16.42;54.02;101236.78;4991377;28;99732;-47
2021/11/05 03:19:32;;;;;;;14.40;12.83;;;15.70;99.90;;;16.43;53.77;101230.53;4990089;27;98744;-49
2021/11/05 03:21:59;;;;;;;42.07;31.13;;;15.70;99.90;;;16.39;53.88;101235.16;4997608;27;97312;-49
2021/11/05 03:24:25;;;;;;;37.20;28.20;;;15.60;99.90;;;16.36;53.79;101236.16;4989406;28;97446;-51
2021/11/05 03:26:51;;;;;;;16.83;14.83;;;15.50;99.90;;;16.35;54.11;101239.78;4989073;28;102085;-48
2021/11/05 03:29:17;;;;;;;22.77;17.87;;;15.50;99.90;;;16.34;53.93;101248.66;4988641;28;99091;-49
2021/11/05 03:31:43;;;;;;;51.27;36.87;;;15.50;99.90;;;16.35;54.22;101250.44;4988172;27;97040;-48
2021/11/05 03:34:10;;;;;;;37.00;28.50;;;15.50;99.90;;;16.36;53.92;101246.81;4990133;27;97149;-50
2021/11/05 03:36:36;;;;;;;42.90;31.40;;;15.60;99.90;;;16.39;53.72;101255.59;4993608;27;97738;-48
2021/11/05 03:39:05;;;;;;;30.33;22.23;;;15.60;99.90;;;16.38;53.80;101257.38;4994621;27;97519;-46
2021/11/05 03:41:31;;;;;;;29.87;21.53;;;15.60;99.90;;;16.38;54.11;101264.50;4991742;27;96946;-47
2021/11/05 03:43:57;;;;;;;23.33;17.90;;;15.60;99.90;;;16.40;54.07;101270.63;4999335;28;97242;-48
2021/11/05 03:46:23;;;;;;;43.23;31.57;;;15.70;99.90;;;16.44;53.93;101275.72;4997109;28;96939;-49
2021/11/05 03:48:49;;;;;;;45.83;32.77;;;15.80;99.90;;;16.47;53.50;101277.34;4986959;28;102617;-49
2021/11/05 03:51:15;;;;;;;47.50;34.23;;;15.80;99.90;;;16.45;53.40;101285.41;4993173;28;102767;-47
2021/11/05 03:53:41;;;;;;;46.97;33.47;;;15.80;99.90;;;16.46;53.66;101279.16;4999689;27;96932;-46
2021/11/05 03:56:07;;;;;;;46.27;32.57;;;15.80;99.90;;;16.46;51.87;101283.63;4994162;28;100195;-47
2021/11/05 03:58:34;;;;;;;41.90;30.00;;;15.80;99.90;;;16.39;51.45;101293.72;4990310;27;97440;-48
2021/11/05 04:01:00;;;;;;;38.13;29.07;;;15.80;99.90;;;16.27;53.10;101289.00;4992973;28;97616;-47
2021/11/05 04:03:26;;;;;;;38.17;28.17;;;15.60;99.90;;;16.09;52.12;101296.09;4990181;27;97259;-48
2021/11/05 04:05:52;;;;;;;39.70;28.97;;;15.50;99.90;;;16.11;54.53;101304.84;4986885;28;98475;-47
2021/11/05 04:08:18;;;;;;;32.00;25.50;;;15.40;99.90;;;16.04;53.02;101308.72;4994685;27;97416;-50
2021/11/05 04:10:43;;;;;;;41.63;28.90;;;15.40;99.90;;;15.98;52.58;101311.69;4990277;27;96956;-46
2021/11/05 04:13:09;;;;;;;38.67;28.80;;;15.30;99.90;;;15.91;54.50;101323.56;4994454;27;97406;-48
2021/11/05 04:15:35;;;;;;;39.03;28.10;;;15.30;99.90;;;15.84;53.43;101320.34;4986768;28;113014;-46
2021/11/05 04:18:01;;;;;;;38.17;27.83;;;15.20;99.90;;;15.85;55.05;101321.19;4990825;28;100057;-48
2021/11/05 04:20:27;;;;;;;38.27;27.67;;;15.20;99.90;;;15.89;55.22;101325.44;4980667;27;96878;-48
2021/11/05 04:22:52;;;;;;;35.67;25.73;;;15.30;99.90;;;15.77;53.54;101333.06;4987547;28;97192;-48
2021/11/05 04:25:18;;;;;;;37.87;27.37;;;15.20;99.90;;;15.74;53.23;101343.84;4993962;27;98625;-46
2021/11/05 04:27:45;;;;;;;34.43;26.57;;;15.10;99.90;;;15.82;55.15;101345.28;4978938;27;106360;-48
2021/11/05 04:30:13;;;;;;;24.03;18.37;;;15.10;99.90;;;15.86;55.39;101349.53;4991758;28;97310;-51
2021/11/05 04:32:40;;;;;;;31.57;23.20;;;15.10;99.90;;;15.76;54.95;101349.94;4994989;27;98516;-48
2021/11/05 04:35:07;;;;;;;18.57;14.40;;;15.00;99.90;;;15.77;55.15;101343.72;4994261;28;97540;-50
2021/11/05 04:37:33;;;;;;;36.17;27.00;;;15.00;99.90;;;15.82;55.32;101356.78;4991290;27;99566;-46
2021/11/05 04:39:59;;;;;;;36.27;26.70;;;15.00;99.90;;;15.86;54.59;101362.81;5007746;27;97960;-46
2021/11/05 04:42:24;;;;;;;35.73;27.17;;;15.10;99.90;;;15.89;53.90;101373.31;4991791;27;117362;-53
2021/11/05 04:44:50;;;;;;;37.67;27.47;;;15.10;99.90;;;15.89;54.63;101368.84;5007200;27;110009;-47
2021/11/05 04:47:16;;;;;;;39.10;28.63;;;15.10;99.90;;;15.89;54.82;101368.00;5016722;27;105001;-47
2021/11/05 04:49:42;;;;;;;39.17;27.60;;;15.10;99.90;;;15.87;54.80;101372.53;4990041;27;96969;-47
2021/11/05 04:52:08;;;;;;;39.33;28.13;;;15.00;99.90;;;15.91;54.68;101382.09;4994709;28;101665;-46
2021/11/05 04:54:34;;;;;;;35.90;27.03;;;15.10;99.90;;;15.84;53.89;101385.97;4996968;28;99955;-46
2021/11/05 04:57:00;;;;;;;39.10;25.40;;;15.10;99.90;;;15.86;54.91;101389.44;4997273;27;97138;-48
2021/11/05 04:59:26;;;;;;;35.50;25.20;;;15.10;99.90;;;15.79;54.93;101399.50;4983622;28;107302;-50
2021/11/05 05:01:52;;;;;;;32.80;23.83;;;15.00;99.90;;;15.80;55.02;101395.03;5013444;27;103420;-47
2021/11/05 05:04:17;;;;;;;30.27;21.93;;;15.00;99.90;;;15.73;54.53;101394.44;4995223;27;97426;-48
2021/11/05 05:06:43;;;;;;;30.77;22.57;;;14.90;99.90;;;15.76;55.29;101399.63;4990718;27;103857;-49
2021/11/05 05:09:10;;;;;;;26.50;19.70;;;15.00;99.90;;;15.70;54.64;101399.91;5015059;27;96839;-47
2021/11/05 05:11:36;;;;;;;30.73;22.50;;;15.00;99.90;;;15.64;55.27;101411.69;4999854;27;96801;-48
2021/11/05 05:14:02;;;;;;;18.63;13.73;;;14.90;99.90;;;15.66;55.11;101414.28;4995342;27;97743;-51
2021/11/05 05:16:28;;;;;;;28.50;22.27;;;14.90;99.90;;;15.58;52.88;101411.06;5009744;27;106775;-48
2021/11/05 05:18:53;;;;;;;11.90;10.30;;;14.90;99.90;;;15.68;55.49;101407.09;4993806;27;97109;-50
2021/11/05 05:21:19;;;;;;;28.50;20.73;;;14.90;99.90;;;15.67;54.90;101414.22;4997266;28;97270;-47
2021/11/05 05:23:45;;;;;;;28.60;20.17;;;14.90;99.90;;;15.72;55.26;101414.84;4994681;27;97271;-47
2021/11/05 05:26:11;;;;;;;25.87;19.70;;;14.90;99.90;;;15.78;55.07;101413.75;4994913;28;97383;-46
2021/11/05 05:28:37;;;;;;;30.83;22.10;;;15.00;99.90;;;15.75;54.41;101420.03;4979966;28;98194;-47
2021/11/05 05:31:07;;;;;;;28.73;21.67;;;15.00;99.90;;;15.72;53.99;101436.13;5009910;27;97430;-48
2021/11/05 05:33:35;;;;;;;29.57;21.30;;;14.90;99.90;;;15.76;55.12;101432.41;4993536;27;97774;-47
2021/11/05 05:36:06;;;;;;;32.00;21.50;;;15.00;99.90;;;15.82;54.73;101441.06;4991578;28;97139;-45
2021/11/05 05:38:33;;;;;;;28.10;20.83;;;15.10;99.90;;;15.83;54.53;101448.97;4977620;27;97589;-46
2021/11/05 05:40:59;;;;;;;27.17;20.10;;;15.10;99.90;;;15.87;54.82;101449.69;4992791;28;96986;-48
2021/11/05 05:43:25;;;;;;;28.50;21.30;;;15.20;99.90;;;15.69;51.47;101452.25;4995101;28;102354;-56
2021/11/05 05:45:51;;;;;;;26.73;19.47;;;15.00;99.90;;;15.59;54.65;101455.34;4989997;27;102434;-47
2021/11/05 05:48:17;;;;;;;20.90;15.37;;;14.80;99.90;;;15.60;55.40;101457.94;4991672;27;97424;-48
2021/11/05 05:50:43;;;;;;;26.63;19.50;;;14.80;99.90;;;15.65;55.25;101466.63;4988462;27;97337;-46
2021/11/05 05:53:09;;;;;;;26.87;20.87;;;14.90;99.90;;;15.61;55.12;101467.66;4996970;27;97826;-48
2021/11/05 05:55:38;;;;;;;25.77;19.60;;;14.80;99.90;;;15.53;55.48;101475.09;4987683;27;98058;-47
2021/11/05 05:58:05;;;;;;;20.30;16.27;;;14.70;99.90;;;15.63;55.33;101479.13;4989890;28;97083;-48
2021/11/05 06:00:33;;;;;;;22.13;17.50;;;14.80;99.90;;;15.69;55.52;101484.16;4994099;28;97093;-46
2021/11/05 06:02:59;;;;;;;25.90;19.07;;;14.90;99.90;;;15.73;55.28;101488.41;4994703;28;96927;-47
2021/11/05 06:05:25;;;;;;;24.87;18.53;;;14.90;99.90;;;15.78;54.84;101488.22;4995024;27;96986;-54
2021/11/05 06:07:51;;;;;;;25.57;19.50;;;15.00;99.90;;;15.84;54.81;101497.72;4990800;28;97011;-47
2021/11/05 06:10:17;;;;;;;24.57;18.90;;;15.00;99.90;;;15.82;54.77;101504.91;4996815;28;97219;-48
2021/11/05 06:12:43;;;;;;;25.03;19.50;;;14.90;99.90;;;15.83;54.44;101506.63;4994872;27;103104;-48
2021/11/05 06:15:10;;;;;;;24.33;18.70;;;15.00;99.90;;;15.86;54.81;101502.03;4994088;28;98238;-47
2021/11/05 06:17:36;;;;;;;23.87;17.50;;;15.00;99.90;;;15.88;54.87;101512.59;5008705;27;97364;-48
2021/11/05 06:20:04;;;;;;;26.17;18.57;;;15.10;99.90;;;15.88;54.75;101509.94;4990861;28;99331;-47
2021/11/05 06:22:30;;;;;;;22.60;17.63;;;15.00;99.90;;;15.86;54.42;101518.00;4991653;27;100049;-48
2021/11/05 06:24:59;;;;;;;26.10;18.67;;;15.00;99.90;;;15.91;54.88;101515.13;4992356;28;97427;-46
2021/11/05 06:27:27;;;;;;;24.47;18.87;;;15.10;99.90;;;15.96;54.55;101526.44;4990680;28;96898;-50
2021/11/05 06:29:54;;;;;;;25.30;18.33;;;15.20;99.90;;;15.93;53.77;101530.09;4994785;27;98132;-48
2021/11/05 06:32:20;;;;;;;23.63;18.50;;;15.20;99.90;;;15.91;53.73;101531.09;4999872;27;98460;-48
2021/11/05 06:34:46;;;;;;;23.97;18.73;;;15.10;99.90;;;15.89;53.85;101536.47;4992182;28;97906;-48
2021/11/05 06:37:12;;;;;;;26.03;18.67;;;15.10;99.90;;;15.87;54.10;101543.66;4993724;27;97047;-49
2021/11/05 06:39:39;;;;;;;25.90;17.77;;;15.10;99.90;;;15.86;53.86;101549.06;4991591;27;103048;-47
2021/11/05 06:42:05;;;;;;;24.87;17.67;;;15.10;99.90;;;15.73;52.50;101544.25;4994392;28;99075;-47
2021/11/05 06:44:31;;;;;;;23.77;18.53;;;15.00;99.90;;;15.73;54.58;101554.91;4986734;28;98752;-47
2021/11/05 06:46:58;;;;;;;26.27;19.40;;;15.00;99.90;;;15.68;53.59;101554.25;4993280;27;97381;-48
2021/11/05 06:49:24;;;;;;;24.23;18.40;;;14.90;99.90;;;15.59;52.07;101557.28;4992303;27;97215;-49
2021/11/05 06:51:55;;;;;;;22.07;17.33;;;14.80;99.90;;;15.51;55.35;101559.38;4989676;27;102893;-47
2021/11/05 06:54:22;;;;;;;20.17;16.83;;;14.70;99.90;;;15.50;55.28;101568.28;4992393;27;98133;-50
2021/11/05 06:56:49;;;;;;;24.27;17.73;;;14.70;99.90;;;15.38;54.67;101576.78;4991304;27;99198;-49
2021/11/05 06:59:15;;;;;;;22.60;17.83;;;14.60;99.90;;;15.44;55.78;101576.50;5008823;27;96943;-52
2021/11/05 07:01:41;;;;;;;21.60;17.67;;;14.60;99.90;;;15.46;55.86;101582.63;4988427;27;99721;-52
2021/11/05 07:04:07;;;;;;;24.43;18.37;;;14.70;99.90;;;15.48;55.27;101579.00;5020839;27;97260;-48
2021/11/05 07:06:33;;;;;;;22.67;17.43;;;14.70;99.90;;;15.57;55.72;101590.16;4988008;27;97327;-48
2021/11/05 07:08:59;;;;;;;22.37;15.77;;;14.80;99.90;;;15.62;55.39;101589.09;4991817;27;98760;-51
2021/11/05 07:11:24;;;;;;;17.03;13.80;;;14.90;99.90;;;15.68;55.52;101594.13;4984893;27;98759;-53
2021/11/05 07:13:50;;;;;;;22.20;17.30;;;15.00;99.90;;;15.74;55.08;101593.88;4990069;27;102172;-50
2021/11/05 07:16:16;;;;;;;12.90;10.57;;;15.10;99.90;;;15.82;54.78;101595.34;4987934;28;97032;-50
2021/11/05 07:18:42;;;;;;;21.17;17.13;;;15.10;99.90;;;15.93;54.84;101595.75;4988897;27;97175;-47
2021/11/05 07:21:09;;;;;;;21.77;17.93;;;15.30;99.90;;;16.05;54.27;101604.06;4985314;28;97410;-50
2021/11/05 07:23:36;;;;;;;26.10;17.97;;;15.50;99.90;;;16.15;53.86;101609.84;4987197;27;98242;-48
2021/11/05 07:26:03;;;;;;;24.13;19.40;;;15.60;99.90;;;16.18;53.61;101615.03;4991845;27;96958;-48
2021/11/05 07:28:30;;;;;;;26.80;21.80;;;15.60;99.90;;;16.21;53.84;101628.25;4987099;27;97022;-51
2021/11/05 07:30:56;;;;;;;24.30;20.07;;;15.60;99.90;;;16.24;53.68;101625.44;4987321;27;99596;-48
2021/11/05 07:33:22;;;;;;;27.10;20.07;;;15.70;99.90;;;16.34;53.40;101632.06;4986167;27;99072;-53
2021/11/05 07:35:48;;;;;;;26.47;21.40;;;15.80;99.90;;;16.38;53.08;101638.13;4981396;27;97448;-50
2021/11/05 07:38:14;;;;;;;29.00;22.97;;;15.90;99.90;;;16.42;53.38;101638.84;4993226;27;98289;-49
2021/11/05 07:40:40;;;;;;;28.90;23.63;;;15.90;99.90;;;16.43;52.77;101645.91;4981310;27;100058;-51
2021/11/05 07:43:06;;;;;;;31.93;25.13;;;15.90;99.90;;;16.46;52.82;101651.09;4987399;28;108319;-47
2021/11/05 07:45:32;;;;;;;30.03;25.63;;;15.90;99.90;;;16.42;52.81;101660.16;4989864;27;108328;-50
2021/11/05 07:47:58;;;;;;;34.43;28.87;;;15.80;99.90;;;16.38;52.71;101669.22;4993611;27;97560;-51
2021/11/05 07:50:26;;;;;;;17.60;14.00;;;15.70;99.90;;;16.36;53.19;101670.16;4990559;28;100092;-48
2021/11/05 07:52:53;;;;;;;32.40;25.43;;;15.60;99.90;;;16.40;53.25;101672.69;4989151;27;99835;-48
2021/11/05 07:55:19;;;;;;;30.10;25.13;;;15.80;99.90;;;16.44;53.09;101677.78;4987026;28;97204;-48
2021/11/05 07:57:45;;;;;;;25.97;20.33;;;15.90;99.90;;;16.43;52.32;101685.84;4984966;27;99395;-49
2021/11/05 08:00:13;;;;;;;28.37;22.20;;;16.00;99.90;;;16.47;52.99;101679.47;4990545;28;99695;-52
2021/11/05 08:02:39;;;;;;;28.53;24.23;;;15.90;99.90;;;16.27;49.09;101689.19;4986454;27;97344;-47
2021/11/05 08:05:06;;;;;;;26.27;21.73;;;15.80;99.20;;;16.33;50.33;101688.91;4992149;27;96996;-51
2021/11/05 08:07:32;;;;;;;24.67;20.03;;;15.90;99.90;;;16.39;53.04;101686.94;4993997;27;97567;-53
2021/11/05 08:09:57;;;;;;;27.57;23.17;;;15.90;99.90;;;16.43;51.51;101694.72;4996142;27;108507;-50
2021/11/05 08:12:23;;;;;;;28.77;24.07;;;16.10;99.70;;;16.46;52.49;101699.03;4996525;28;96786;-49
2021/11/05 08:14:49;;;;;;;25.40;21.87;;;16.10;99.90;;;16.50;52.42;101698.00;5005073;27;96949;-47
2021/11/05 08:17:15;;;;;;;28.90;24.50;;;16.10;99.90;;;16.50;51.14;101706.84;5001192;27;96860;-50
2021/11/05 08:19:41;;;;;;;25.90;22.80;;;16.20;99.30;;;16.54;52.72;101712.88;4987790;27;96746;-50
2021/11/05 08:22:07;;;;;;;30.83;24.47;;;16.20;99.90;;;16.54;52.47;101718.22;4994717;27;96981;-48
2021/11/05 08:24:33;;;;;;;28.77;22.37;;;16.20;99.90;;;16.49;51.25;101723.75;4986502;27;99604;-50
2021/11/05 08:26:59;;;;;;;28.57;23.93;;;16.10;99.90;;;16.36;52.37;101720.75;4995989;28;96984;-47
2021/11/05 08:29:25;;;;;;;27.37;23.10;;;15.90;99.90;;;16.34;52.62;101721.72;4992874;27;99968;-55
2021/11/05 08:31:51;;;;;;;27.67;21.77;;;15.90;99.90;;;16.38;52.91;101733.13;4967001;28;98022;-52
2021/11/05 08:34:17;;;;;;;11.23;9.40;;;15.90;99.90;;;16.45;52.81;101734.59;4972425;28;98210;-50
2021/11/05 08:36:43;;;;;;;26.97;22.67;;;16.10;99.90;;;16.38;50.50;101739.31;4996973;27;100263;-53
2021/11/05 08:39:09;;;;;;;32.00;24.83;;;16.00;99.00;;;16.32;50.47;101740.44;4971233;28;99113;-50
2021/11/05 08:41:35;;;;;;;33.83;25.97;;;15.90;99.20;;;15.85;49.78;101744.19;4968342;27;98444;-50
2021/11/05 08:44:01;;;;;;;33.27;26.77;;;15.40;99.60;;;15.51;54.35;101739.34;4983086;27;99110;-49
2021/11/05 08:46:30;;;;;;;21.73;17.70;;;14.90;99.90;;;15.64;54.96;101741.50;4986442;27;98707;-50
2021/11/05 08:49:01;;;;;;;27.43;22.40;;;15.00;99.90;;;15.65;55.19;101748.53;4966034;28;102380;-55
2021/11/05 08:51:29;;;;;;;25.10;20.37;;;14.90;99.90;;;15.71;55.28;101752.72;4965182;27;99697;-52
2021/11/05 08:53:54;;;;;;;11.03;8.67;;;15.00;99.90;;;15.84;54.67;101758.44;4971902;27;97778;-52
2021/11/05 08:56:20;;;;;;;20.47;15.93;;;15.20;99.90;;;15.89;54.36;101753.78;4970171;28;99111;-52
2021/11/05 08:58:47;;;;;;;8.23;7.07;;;15.20;99.90;;;15.98;54.37;101758.75;4963629;27;101093;-50
2021/11/05 09:01:14;;;;;;;31.73;23.23;;;15.30;99.90;;;16.06;53.38;101761.97;4970550;28;100187;-54
2021/11/05 09:03:41;;;;;;;23.77;18.27;;;15.40;99.90;;;16.03;53.88;101768.25;4960851;27;101472;-54
2021/11/05 09:06:07;;;;;;;30.20;23.43;;;15.30;99.90;;;16.02;53.79;101778.97;4960388;28;97714;-51
2021/11/05 09:08:34;;;;;;;24.10;20.03;;;15.20;99.90;;;16.04;54.23;101782.44;4963469;27;97155;-52
2021/11/05 09:11:02;;;;;;;9.63;7.90;;;15.30;99.90;;;16.08;54.09;101789.38;4969746;28;97573;-53
2021/11/05 09:13:35;;;;;;;7.90;6.80;;;15.30;99.90;;;16.13;53.86;101792.72;4966576;27;99725;-52
2021/11/05 09:16:02;;;;;;;23.47;18.03;;;15.50;99.90;;;16.15;53.65;101795.31;4975749;27;99602;-49
2021/11/05 09:18:28;;;;;;;26.43;19.90;;;15.50;99.90;;;16.14;53.62;101798.91;4972625;27;99670;-51
2021/11/05 09:20:54;;;;;;;31.23;22.20;;;15.30;99.90;;;15.74;50.84;101805.81;4970682;28;98541;-54
2021/11/05 09:23:23;;;;;;;41.73;31.07;;;15.10;99.90;;;13.92;55.71;101809.50;4973380;27;97908;-50
2021/11/05 09:25:49;;;;;;;43.03;31.30;;;13.50;99.90;;;12.60;59.51;101808.84;4965841;27;97776;-53
2021/11/05 09:28:15;;;;;;;46.17;33.40;;;12.50;99.90;;;12.17;61.51;101815.22;4968358;27;99162;-56
2021/11/05 09:30:41;;;;;;;43.30;28.37;;;12.00;99.90;;;12.43;61.60;101808.38;4967502;27;97092;-44
2021/11/05 09:33:06;;;;;;;21.67;15.17;;;12.00;99.90;;;13.16;62.96;101811.72;4969815;27;99243;-50
2021/11/05 09:35:32;;;;;;;16.33;13.10;;;12.60;99.90;;;13.69;61.20;101812.00;4968040;27;98495;-49
2021/11/05 09:37:58;;;;;;;18.30;13.73;;;13.30;99.90;;;14.12;59.95;101822.13;4968264;27;100154;-46
2021/11/05 09:40:29;;;;;;;18.17;12.93;;;13.70;99.90;;;14.51;58.80;101820.00;4969332;27;99465;-48
2021/11/05 09:42:55;;;;;;;22.73;15.70;;;14.00;99.90;;;14.80;57.65;101820.78;4964224;27;101250;-48
2021/11/05 09:45:25;;;;;;;24.70;19.53;;;14.30;99.90;;;15.06;57.02;101823.41;4967776;27;101190;-46
2021/11/05 09:47:51;;;;;;;21.67;16.30;;;14.50;99.90;;;15.23;56.31;101835.22;4961559;27;103030;-49
2021/11/05 09:50:22;;;;;;;23.13;16.83;;;14.60;99.90;;;15.41;55.46;101831.88;4965666;28;97854;-48
2021/11/05 09:52:48;;;;;;;27.37;18.37;;;14.80;99.90;;;15.53;55.75;101841.19;4985618;27;99112;-48
2021/11/05 09:55:16;;;;;;;19.73;13.40;;;14.90;99.90;;;15.73;55.02;101842.19;4967872;28;97267;-48
2021/11/05 09:57:42;;;;;;;25.10;18.43;;;15.10;99.90;;;15.89;54.30;101846.91;4962112;27;98448;-50